Time;durP1;ratioP1;P1;durP2;ratioP2;P2;SDS_P1;SDS_P2;PMS_P1;PMS_P2;Temp;Humidity;BMP_temperature;BMP_pressure;BME280_temperature;BME280_humidity;BME280_pressure;Samples;Min_cycle;Max_cycle;Signal;HPM_P1;HPM_P2
2023/06/23 00:00:12;;;;;;;5.78;4.22;;;;;;;16.48;100.00;101822.75;5089577;28;20063;-36
2023/06/23 00:02:39;;;;;;;4.95;4.28;;;;;;;16.55;100.00;101825.34;5089995;28;20035;-36
2023/06/23 00:05:07;;;;;;;6.72;4.40;;;;;;;16.51;100.00;101837.81;5089182;28;20060;-36
2023/06/23 00:07:33;;;;;;;4.88;4.32;;;;;;;16.55;100.00;101828.88;5089386;28;20527;-36
2023/06/23 00:09:59;;;;;;;5.50;4.82;;;;;;;16.53;100.00;101833.75;5087575;28;20036;-36
2023/06/23 00:12:24;;;;;;;;;;;;;;;16.64;100.00;101832.00;5075567;28;20111;-37
2023/06/23 00:14:49;;;;;;;7.20;5.17;;;;;;;16.50;100.00;101842.44;5075565;28;19912;-36
2023/06/23 00:17:15;;;;;;;;;;;;;;;16.60;100.00;101848.09;5075939;28;20273;-37
2023/06/23 00:19:41;;;;;;;7.35;5.25;;;;;;;16.48;100.00;101850.88;5075387;28;19912;-37
2023/06/23 00:22:06;;;;;;;;;;;;;;;16.59;100.00;101851.91;5075971;28;20055;-36
2023/06/23 00:24:32;;;;;;;7.18;5.93;;;;;;;16.41;100.00;101852.94;5075904;28;19908;-36
2023/06/23 00:26:57;;;;;;;;;;;;;;;16.54;100.00;101851.78;5076309;28;20450;-36
2023/06/23 00:29:23;;;;;;;7.40;5.72;;;;;;;16.41;100.00;101863.03;5075276;28;20004;-37
2023/06/23 00:31:49;;;;;;;;;;;;;;;16.50;100.00;101856.09;5075380;28;20101;-37
2023/06/23 00:34:15;;;;;;;6.68;6.00;;;;;;;16.31;100.00;101854.66;5074892;28;19916;-36
2023/06/23 00:36:41;;;;;;;9.23;6.80;;;;;;;16.33;100.00;101864.25;5075141;28;20376;-36
2023/06/23 00:39:08;;;;;;;;;;;;;;;16.46;100.00;101868.59;5075203;28;20020;-37
2023/06/23 00:41:34;;;;;;;8.25;6.47;;;;;;;16.31;100.00;101868.31;5075381;28;20022;-36
2023/06/23 00:43:59;;;;;;;;;;;;;;;16.41;100.00;101876.69;5075457;28;20107;-36
2023/06/23 00:46:25;;;;;;;7.93;7.13;;;;;;;16.30;100.00;101869.34;5074961;28;19916;-36
2023/06/23 00:48:52;;;;;;;9.48;7.20;;;;;;;16.31;100.00;101881.94;5075581;28;20037;-36
2023/06/23 00:51:17;;;;;;;8.23;7.35;;;;;;;16.29;100.00;101884.06;5075324;28;20040;-36
2023/06/23 00:53:47;;;;;;;;;;;;;;;16.39;100.00;101887.81;5075302;28;20020;-36
2023/06/23 00:56:16;;;;;;;10.45;7.50;;;;;;;16.21;100.00;101880.69;5075511;28;20277;-36
2023/06/23 00:58:42;;;;;;;9.05;8.15;;;;;;;16.18;100.00;101893.97;5074539;28;20048;-36
2023/06/23 01:01:10;;;;;;;;;;;;;;;16.34;100.00;101903.28;5075121;28;20039;-36
2023/06/23 01:03:36;;;;;;;8.50;7.63;;;;;;;16.18;100.00;101900.25;5075411;28;19908;-36
2023/06/23 01:06:09;;;;;;;;;;;;;;;16.30;100.00;101921.22;5075418;28;20030;-36
2023/06/23 01:08:48;;;;;;;9.48;8.50;;;;;;;16.20;100.00;101919.97;5074807;28;19908;-36
2023/06/23 01:11:21;;;;;;;10.23;8.73;;;;;;;16.14;100.00;101910.00;5075291;28;20037;-36
2023/06/23 01:13:55;;;;;;;11.23;9.32;;;;;;;16.15;100.00;101922.59;5075122;28;20058;-36
2023/06/23 01:16:23;;;;;;;11.25;9.52;;;;;;;16.19;100.00;101923.75;5074846;28;20032;-36
2023/06/23 01:19:03;;;;;;;10.57;9.02;;;;;;;16.18;100.00;101926.72;5074242;28;20054;-36
2023/06/23 01:21:39;;;;;;;12.55;9.88;;;;;;;16.18;100.00;101921.25;5073980;28;20025;-36
2023/06/23 01:24:26;;;;;;;10.88;9.85;;;;;;;16.13;100.00;101916.53;5073875;28;20082;-36
2023/06/23 01:27:28;;;;;;;11.50;9.90;;;;;;;16.12;100.00;101924.97;5074862;28;20020;-36
2023/06/23 01:29:56;;;;;;;10.68;9.57;;;;;;;16.09;100.00;101934.44;5073821;28;20040;-36
2023/06/23 01:32:28;;;;;;;11.85;10.65;;;;;;;16.07;100.00;101936.59;5074455;28;20357;-36
2023/06/23 01:34:58;;;;;;;11.07;9.63;;;;;;;16.08;100.00;101940.16;5073636;28;20033;-37
2023/06/23 01:37:27;;;;;;;11.75;9.45;;;;;;;16.01;100.00;101929.38;5074180;28;20059;-36
2023/06/23 01:39:56;;;;;;;10.82;9.73;;;;;;;16.01;100.00;101929.38;5073802;28;20337;-36
2023/06/23 01:42:34;;;;;;;9.95;9.05;;;;;;;16.05;100.00;101936.00;5074102;28;20040;-36
2023/06/23 01:45:03;;;;;;;11.00;9.82;;;;;;;16.03;100.00;101942.78;5073966;28;20526;-36
2023/06/23 01:47:33;;;;;;;10.40;9.30;;;;;;;16.03;100.00;101937.31;5073690;28;20179;-36
2023/06/23 01:50:02;;;;;;;11.60;9.88;;;;;;;15.96;100.00;101945.66;5073735;28;20033;-37
2023/06/23 01:52:31;;;;;;;11.75;10.43;;;;;;;15.97;100.00;101947.31;5073387;28;20062;-37
2023/06/23 01:54:57;;;;;;;11.10;9.65;;;;;;;15.98;100.00;101943.50;5073603;28;20020;-37
2023/06/23 01:57:24;;;;;;;12.98;10.05;;;;;;;15.89;100.00;101944.94;5073541;28;20082;-37
2023/06/23 01:59:52;;;;;;;10.65;9.35;;;;;;;15.95;100.00;101960.34;5073797;28;20155;-37
2023/06/23 02:02:19;;;;;;;10.90;9.80;;;;;;;15.90;100.00;101957.50;5074154;28;20364;-37
2023/06/23 02:04:48;;;;;;;10.55;9.45;;;;;;;15.90;100.00;101955.59;5073290;28;20032;-36
2023/06/23 02:07:16;;;;;;;11.57;10.48;;;;;;;15.89;100.00;101951.22;5073730;28;20459;-36
2023/06/23 02:09:42;;;;;;;11.63;10.43;;;;;;;15.86;100.00;101953.59;5073237;28;20542;-36
2023/06/23 02:12:09;;;;;;;11.40;9.93;;;;;;;15.92;100.00;101963.56;5073529;28;20055;-36
2023/06/23 02:14:37;;;;;;;10.82;9.73;;;;;;;15.90;100.00;101971.13;5073138;28;20429;-36
2023/06/23 02:17:05;;;;;;;10.65;9.70;;;;;;;15.88;100.00;101978.75;5073327;28;20396;-36
2023/06/23 02:19:32;;;;;;;10.77;9.45;;;;;;;15.78;100.00;101968.44;5073098;28;20388;-36
2023/06/23 02:21:59;;;;;;;10.63;9.63;;;;;;;15.83;100.00;101979.47;5073066;28;20028;-36
2023/06/23 02:24:26;;;;;;;11.43;9.93;;;;;;;15.69;100.00;101978.88;5073033;28;20032;-36
2023/06/23 02:26:53;;;;;;;11.25;9.73;;;;;;;15.82;100.00;101979.69;5073039;28;20024;-36
2023/06/23 02:29:20;;;;;;;10.60;9.55;;;;;;;15.77;100.00;101991.31;5073237;28;20408;-36
2023/06/23 02:31:46;;;;;;;11.55;10.40;;;;;;;15.82;100.00;102002.34;5073249;28;20094;-36
2023/06/23 02:34:11;;;;;;;;;;;;;;;15.88;100.00;102009.56;5072836;28;20060;-36
2023/06/23 02:36:45;;;;;;;11.13;10.05;;;;;;;15.68;100.00;101990.84;5072863;28;19951;-36
2023/06/23 02:39:15;;;;;;;11.57;10.45;;;;;;;15.76;100.00;102021.53;5072984;28;20028;-36
2023/06/23 02:41:43;;;;;;;13.38;11.82;;;;;;;15.72;100.00;102014.94;5073543;28;20026;-36
2023/06/23 02:44:15;;;;;;;13.65;11.32;;;;;;;15.65;100.00;102006.84;5072552;28;20040;-36
2023/06/23 02:46:44;;;;;;;13.38;12.13;;;;;;;15.68;100.00;102012.66;5072488;28;20063;-36
2023/06/23 02:49:17;;;;;;;13.35;12.02;;;;;;;15.61;100.00;102020.06;5072419;28;20033;-36
2023/06/23 02:51:44;;;;;;;12.85;11.55;;;;;;;15.66;100.00;102028.44;5072880;28;20380;-36
2023/06/23 02:54:19;;;;;;;13.88;12.57;;;;;;;15.60;100.00;102025.78;5072389;28;20472;-36
2023/06/23 02:56:46;;;;;;;13.88;12.45;;;;;;;15.62;100.00;102038.13;5072898;28;20021;-36
2023/06/23 02:59:18;;;;;;;14.45;12.88;;;;;;;15.62;100.00;102032.66;5072635;28;20052;-36
2023/06/23 03:01:46;;;;;;;16.48;13.77;;;;;;;15.62;100.00;102032.66;5072932;28;20039;-36
2023/06/23 03:04:12;;;;;;;15.15;13.65;;;;;;;15.61;100.00;102030.97;5073023;28;20032;-36
2023/06/23 03:06:38;;;;;;;;;;;;;;;15.69;100.00;102032.56;5073295;28;20036;-36
2023/06/23 03:09:03;;;;;;;16.65;14.27;;;;;;;15.60;100.00;102040.22;5072512;28;19963;-36
2023/06/23 03:11:32;;;;;;;;;;;;;;;15.67;100.00;102038.28;5073468;28;20060;-36
2023/06/23 03:13:58;;;;;;;17.60;14.80;;;;;;;15.57;100.00;102035.28;5072194;28;20368;-36
2023/06/23 03:16:29;;;;;;;;;;;;;;;15.64;100.00;102038.72;5072674;28;20037;-36
2023/06/23 03:19:11;;;;;;;16.90;15.10;;;;;;;15.55;100.00;102037.38;5072026;28;19959;-36
2023/06/23 03:21:39;;;;;;;16.92;15.23;;;;;;;15.48;100.00;102039.41;5072771;28;20028;-36
2023/06/23 03:24:09;;;;;;;17.77;15.98;;;;;;;15.40;100.00;102037.00;5072935;28;20078;-36
2023/06/23 03:26:36;;;;;;;18.00;16.25;;;;;;;15.42;100.00;102043.91;5072780;28;20041;-36
2023/06/23 03:29:06;;;;;;;19.85;17.70;;;;;;;15.46;100.00;102055.97;5072571;28;20036;-36
2023/06/23 03:31:34;;;;;;;19.30;17.30;;;;;;;15.40;100.00;102056.09;5072629;28;20039;-36
2023/06/23 03:34:01;;;;;;;20.35;18.35;;;;;;;15.48;100.00;102063.09;5072776;28;20349;-36
2023/06/23 03:36:27;;;;;;;21.45;19.35;;;;;;;15.31;100.00;102030.22;5072486;28;20033;-36
2023/06/23 03:38:57;;;;;;;;;;;;;;;15.54;100.00;102049.34;5072641;28;20040;-36
2023/06/23 03:41:26;;;;;;;19.77;17.65;;;;;;;15.44;100.00;102057.28;5072623;28;19912;-36
2023/06/23 03:44:08;;;;;;;21.95;19.67;;;;;;;15.41;100.00;102055.84;5072500;28;20107;-36
2023/06/23 03:46:56;;;;;;;21.92;19.63;;;;;;;15.44;100.00;102062.75;5075179;28;20115;-36
2023/06/23 03:49:30;;;;;;;22.98;20.52;;;;;;;15.43;100.00;102055.63;5076173;28;20034;-36
2023/06/23 03:51:59;;;;;;;21.55;19.35;;;;;;;15.34;100.00;102041.50;5076405;28;20032;-36
2023/06/23 03:54:26;;;;;;;21.50;19.33;;;;;;;15.43;100.00;102050.19;5076141;28;20063;-36
2023/06/23 03:56:53;;;;;;;22.20;20.02;;;;;;;15.44;100.00;102055.38;5075547;28;20025;-36
2023/06/23 03:59:21;;;;;;;22.58;19.90;;;;;;;15.46;100.00;102055.16;5075750;28;20106;-36
2023/06/23 04:01:47;;;;;;;22.35;20.13;;;;;;;15.45;100.00;102067.13;5076246;28;20020;-36
2023/06/23 04:04:17;;;;;;;23.58;21.13;;;;;;;15.50;100.00;102080.03;5075827;28;20032;-36
2023/06/23 04:06:45;;;;;;;23.33;20.98;;;;;;;15.50;100.00;102082.78;5075916;28;20361;-37
2023/06/23 04:09:13;;;;;;;22.75;20.45;;;;;;;15.49;100.00;102089.28;5075631;28;20478;-36
2023/06/23 04:11:39;;;;;;;21.65;19.38;;;;;;;15.50;100.00;102088.22;5076002;28;20041;-36
2023/06/23 04:14:06;;;;;;;21.83;19.73;;;;;;;15.50;100.00;102089.06;5076171;28;20090;-36
2023/06/23 04:16:36;;;;;;;22.73;20.33;;;;;;;15.52;100.00;102091.53;5075733;28;20029;-36
2023/06/23 04:19:05;;;;;;;22.27;19.77;;;;;;;15.55;100.00;102091.91;5075500;28;20376;-36
2023/06/23 04:21:34;;;;;;;21.73;18.75;;;;;;;15.57;100.00;102084.34;5075058;28;20036;-36
2023/06/23 04:24:03;;;;;;;22.38;20.00;;;;;;;15.58;100.00;102086.00;5074962;28;20155;-36
2023/06/23 04:26:28;;;;;;;21.45;19.20;;;;;;;15.64;100.00;102090.53;5075314;28;20050;-36
2023/06/23 04:28:55;;;;;;;;;;;;;;;15.75;100.00;102097.06;5075860;28;20115;-36
2023/06/23 04:31:22;;;;;;;20.60;18.60;;;;;;;15.66;100.00;102087.56;5075929;28;19908;-36
2023/06/23 04:33:48;;;;;;;20.52;18.50;;;;;;;15.68;100.00;102088.19;5075242;28;20089;-37
2023/06/23 04:36:14;;;;;;;;;;;;;;;15.84;100.00;102111.19;5076241;28;20111;-36
2023/06/23 04:39:08;;;;;;;23.95;21.20;;;;;;;15.85;100.00;102107.41;5075180;28;19916;-36
2023/06/23 04:41:37;;;;;;;22.30;20.10;;;;;;;15.87;100.00;102105.28;5074709;28;20029;-36
2023/06/23 04:44:07;;;;;;;23.85;21.35;;;;;;;15.92;100.00;102108.13;5075502;28;20032;-36
2023/06/23 04:46:38;;;;;;;22.80;20.30;;;;;;;15.91;100.00;102107.31;5075685;28;20082;-36
2023/06/23 04:49:08;;;;;;;21.50;19.25;;;;;;;16.01;100.00;102112.19;5075308;28;20364;-36
2023/06/23 04:51:39;;;;;;;24.83;21.25;;;;;;;16.10;100.00;102118.91;5075096;28;20087;-36
2023/06/23 04:54:14;;;;;;;22.38;20.23;;;;;;;16.11;100.00;102114.31;5074540;28;20035;-36
2023/06/23 04:56:41;;;;;;;22.85;20.60;;;;;;;16.22;100.00;102125.22;5074907;28;20071;-36
2023/06/23 04:59:09;;;;;;;23.08;20.77;;;;;;;16.19;100.00;102113.94;5074575;28;20460;-36
2023/06/23 05:01:37;;;;;;;25.00;22.30;;;;;;;16.25;100.00;102114.88;5074961;28;20380;-36
2023/06/23 05:04:05;;;;;;;22.17;19.77;;;;;;;16.34;100.00;102125.19;5075170;28;20036;-36
2023/06/23 05:06:33;;;;;;;23.92;21.33;;;;;;;16.41;100.00;102127.84;5074383;28;20042;-37
2023/06/23 05:08:59;;;;;;;25.17;20.83;;;;;;;16.44;100.00;102138.25;5074375;28;20032;-36
2023/06/23 05:11:26;;;;;;;24.52;21.92;;;;;;;16.53;100.00;102150.47;5074366;28;20030;-36
2023/06/23 05:13:53;;;;;;;21.88;19.60;;;;;;;16.60;100.00;102151.19;5074081;28;20483;-36
2023/06/23 05:16:20;;;;;;;23.33;19.98;;;;;;;16.70;100.00;102151.41;5074112;28;20032;-37
2023/06/23 05:18:47;;;;;;;23.35;20.73;;;;;;;16.77;100.00;102147.75;5073841;28;20024;-36
2023/06/23 05:21:16;;;;;;;20.50;18.23;;;;;;;16.85;100.00;102153.66;5073832;28;20116;-36
2023/06/23 05:23:44;;;;;;;23.67;20.60;;;;;;;16.91;100.00;102149.97;5074121;28;20024;-36
2023/06/23 05:26:13;;;;;;;22.85;19.85;;;;;;;16.97;100.00;102150.91;5074621;28;20028;-36
2023/06/23 05:28:40;;;;;;;22.85;20.10;;;;;;;16.98;100.00;102139.75;5074502;28;20047;-36
2023/06/23 05:31:07;;;;;;;24.40;21.80;;;;;;;17.11;100.00;102163.22;5074250;28;20058;-36
2023/06/23 05:33:36;;;;;;;24.58;21.98;;;;;;;17.11;100.00;102162.38;5074291;28;20108;-36
2023/06/23 05:36:02;;;;;;;24.83;22.10;;;;;;;17.15;100.00;102161.66;5074032;28;20032;-36
2023/06/23 05:38:30;;;;;;;23.85;20.77;;;;;;;17.22;100.00;102169.72;5074195;28;20028;-36
2023/06/23 05:40:56;;;;;;;24.70;21.33;;;;;;;17.25;100.00;102161.03;5074244;28;20024;-36
2023/06/23 05:43:21;;;;;;;;;;;;;;;17.45;100.00;102175.09;5074537;28;20036;-36
2023/06/23 05:45:47;;;;;;;22.80;20.45;;;;;;;17.41;100.00;102170.34;5074109;28;19916;-36
2023/06/23 05:48:18;;;;;;;;;;;;;;;17.54;100.00;102175.53;5073965;28;20028;-36
2023/06/23 05:50:47;;;;;;;24.45;20.50;;;;;;;17.48;100.00;102177.34;5073656;28;19915;-37
2023/06/23 05:53:16;;;;;;;25.92;21.52;;;;;;;17.41;100.00;102170.34;5073836;28;20465;-36
2023/06/23 05:56:02;;;;;;;23.77;21.30;;;;;;;17.55;100.00;102187.28;5073991;28;20443;-37
2023/06/23 05:58:33;;;;;;;22.80;20.33;;;;;;;17.58;100.00;102184.09;5073787;28;20025;-36
2023/06/23 06:01:02;;;;;;;23.67;21.17;;;;;;;17.57;100.00;102183.25;5073126;28;19916;-36
2023/06/23 06:03:35;;;;;;;24.55;22.02;;;;;;;17.59;100.00;102183.00;5073387;28;20024;-36
2023/06/23 06:06:02;;;;;;;23.25;20.77;;;;;;;17.56;100.00;102178.00;5073671;28;20024;-36
2023/06/23 06:08:28;;;;;;;24.20;21.60;;;;;;;17.64;100.00;102189.38;5072849;28;20024;-37
2023/06/23 06:10:56;;;;;;;24.35;21.98;;;;;;;17.66;100.00;102191.88;5073454;28;20024;-36
2023/06/23 06:13:23;;;;;;;27.52;23.10;;;;;;;17.65;100.00;102188.31;5073146;28;20048;-36
2023/06/23 06:15:51;;;;;;;25.20;22.50;;;;;;;17.69;100.00;102200.41;5073419;28;20031;-36
2023/06/23 06:18:19;;;;;;;24.80;22.15;;;;;;;17.70;100.00;102207.56;5072791;28;20122;-37
2023/06/23 06:20:45;;;;;;;25.80;23.02;;;;;;;17.70;100.00;102207.56;5073616;28;20037;-36
2023/06/23 06:23:12;;;;;;;24.77;22.35;;;;;;;17.72;100.00;102208.16;5073549;28;20027;-36
2023/06/23 06:25:41;;;;;;;25.45;22.75;;;;;;;17.74;100.00;102211.50;5074026;28;20025;-36
2023/06/23 06:28:12;;;;;;;26.92;24.15;;;;;;;17.76;100.00;102211.22;5072582;28;20028;-37
2023/06/23 06:30:40;;;;;;;24.60;22.10;;;;;;;17.73;100.00;102201.63;5072960;28;20121;-37
2023/06/23 06:33:07;;;;;;;25.13;22.52;;;;;;;17.78;100.00;102211.00;5072885;28;20052;-37
2023/06/23 06:35:34;;;;;;;26.65;23.92;;;;;;;17.72;100.00;102201.84;5072897;28;20048;-37
2023/06/23 06:38:02;;;;;;;26.38;23.58;;;;;;;17.79;100.00;102212.66;5072803;28;20048;-37
2023/06/23 06:40:29;;;;;;;25.95;22.95;;;;;;;17.86;100.00;102224.28;5073093;28;20037;-37
2023/06/23 06:42:55;;;;;;;25.27;22.67;;;;;;;17.92;100.00;102226.03;5072814;28;20031;-37
2023/06/23 06:45:20;;;;;;;;;;;;;;;18.07;100.00;102229.03;5073148;28;20025;-37
2023/06/23 06:47:47;;;;;;;25.65;22.85;;;;;;;18.08;100.00;102230.69;5073178;28;19916;-36
2023/06/23 06:50:17;;;;;;;25.42;22.83;;;;;;;18.14;100.00;102217.91;5072717;28;20033;-36
2023/06/23 06:52:45;;;;;;;23.55;21.13;;;;;;;18.24;100.00;102232.59;5073221;28;20052;-36
2023/06/23 06:55:17;;;;;;;25.08;22.40;;;;;;;18.33;100.00;102235.75;5072687;28;20033;-36
2023/06/23 06:57:44;;;;;;;25.67;22.98;;;;;;;18.50;100.00;102238.50;5073419;28;20032;-37
2023/06/23 07:00:10;;;;;;;22.98;20.55;;;;;;;18.61;100.00;102240.31;5072872;28;20074;-37
2023/06/23 07:02:36;;;;;;;;;;;;;;;18.81;100.00;102247.22;5073291;28;20123;-37
2023/06/23 07:05:02;;;;;;;20.97;18.93;;;;;;;18.92;100.00;102241.59;5072554;28;19913;-37
2023/06/23 07:07:30;;;;;;;22.60;20.40;;;;;;;18.96;100.00;102252.91;5072564;28;20258;-37
2023/06/23 07:09:55;;;;;;;21.73;19.60;;;;;;;18.97;100.00;102260.03;5072461;28;20028;-37
2023/06/23 07:12:23;;;;;;;;;;;;;;;19.06;100.00;102254.94;5072986;28;20035;-37
2023/06/23 07:14:49;;;;;;;19.67;17.67;;;;;;;18.86;100.00;102256.31;5072502;28;19919;-37
2023/06/23 07:17:14;;;;;;;20.48;18.25;;;;;;;18.92;100.00;102263.53;5072530;28;20029;-37
2023/06/23 07:19:40;;;;;;;;;;;;;;;19.08;100.00;102259.13;5072910;28;20025;-37
2023/06/23 07:22:06;;;;;;;18.95;17.05;;;;;;;19.07;100.00;102259.34;5075682;28;20360;-37
2023/06/23 07:24:31;;;;;;;;;;;;;;;19.21;100.00;102266.94;5076495;28;20028;-37
2023/06/23 07:26:56;;;;;;;19.43;17.43;;;;;;;19.17;100.00;102264.97;5076528;28;19913;-37
2023/06/23 07:29:21;;;;;;;19.42;17.42;;;;;;;19.17;100.00;102271.28;5076392;28;20357;-37
2023/06/23 07:31:47;;;;;;;18.73;16.95;;;;;;;19.32;100.00;102289.00;5076875;28;20032;-37
2023/06/23 07:34:12;;;;;;;19.65;17.70;;;;;;;19.28;100.00;102267.59;5076691;28;20039;-37
2023/06/23 07:36:38;;;;;;;19.95;17.95;;;;;;;19.43;100.00;102271.63;5076276;28;20430;-37
2023/06/23 07:39:03;;;;;;;20.17;18.17;;;;;;;19.52;100.00;102273.66;5075899;28;20039;-37
2023/06/23 07:41:28;;;;;;;20.70;18.58;;;;;;;19.62;100.00;102272.13;5076123;28;20112;-37
2023/06/23 07:43:54;;;;;;;19.95;18.02;;;;;;;19.68;100.00;102276.59;5075750;28;20028;-37
2023/06/23 07:46:19;;;;;;;19.75;17.85;;;;;;;19.71;100.00;102282.38;5076509;28;20154;-37
2023/06/23 07:48:44;;;;;;;19.10;17.20;;;;;;;19.78;100.00;102280.28;5075988;28;20461;-37
2023/06/23 07:51:10;;;;;;;19.70;17.70;;;;;;;19.86;100.00;102280.88;5076381;28;20031;-37
2023/06/23 07:53:35;;;;;;;19.08;17.20;;;;;;;20.01;100.00;102270.09;5075675;28;20432;-37
2023/06/23 07:56:00;;;;;;;18.60;16.67;;;;;;;19.98;100.00;102265.09;5076166;28;20451;-37
2023/06/23 07:58:26;;;;;;;18.65;16.90;;;;;;;20.07;100.00;102285.53;5075452;28;20029;-37
2023/06/23 08:00:53;;;;;;;20.40;18.40;;;;;;;20.04;100.00;102269.56;5076096;28;20051;-37
2023/06/23 08:03:18;;;;;;;19.02;17.13;;;;;;;20.13;100.00;102284.47;5075911;28;20121;-37
2023/06/23 08:05:43;;;;;;;18.48;16.77;;;;;;;20.26;100.00;102281.31;5075958;28;20032;-37
2023/06/23 08:08:09;;;;;;;19.52;17.58;;;;;;;20.25;100.00;102276.91;5075885;28;20112;-37
2023/06/23 08:10:35;;;;;;;17.70;15.90;;;;;;;20.40;100.00;102286.34;5075754;28;20105;-37
2023/06/23 08:13:00;;;;;;;17.27;15.70;;;;;;;20.45;100.00;102270.75;5075978;28;20028;-37
2023/06/23 08:15:26;;;;;;;16.30;14.75;;;;;;;20.51;100.00;102285.38;5074676;28;20120;-37
2023/06/23 08:17:51;;;;;;;16.70;15.10;;;;;;;20.53;100.00;102273.03;5075192;28;20059;-37
2023/06/23 08:20:17;;;;;;;16.50;14.90;;;;;;;20.58;100.00;102264.00;5075377;28;20024;-37
2023/06/23 08:22:42;;;;;;;14.27;12.98;;;;;;;20.62;100.00;102269.78;5075008;28;20031;-37
2023/06/23 08:25:08;;;;;;;14.27;12.88;;;;;;;20.87;100.00;102280.13;5076112;28;20028;-37
2023/06/23 08:27:34;;;;;;;15.10;13.65;;;;;;;21.02;100.00;102274.72;5075375;28;20112;-37
2023/06/23 08:29:59;;;;;;;13.90;12.60;;;;;;;21.07;100.00;102283.81;5074941;28;20029;-37
2023/06/23 08:32:24;;;;;;;13.77;12.48;;;;;;;21.09;100.00;102278.91;5075064;28;20457;-37
2023/06/23 08:34:50;;;;;;;12.88;11.68;;;;;;;21.22;100.00;102288.56;5074186;28;20444;-37
2023/06/23 08:37:15;;;;;;;13.93;12.52;;;;;;;21.28;100.00;102278.44;5075331;28;20101;-37
2023/06/23 08:39:41;;;;;;;13.10;11.75;;;;;;;21.40;100.00;102286.50;5075210;28;20060;-37
2023/06/23 08:42:07;;;;;;;11.90;10.70;;;;;;;21.48;100.00;102299.75;5074974;28;20025;-37
2023/06/23 08:44:36;;;;;;;13.63;12.23;;;;;;;21.46;100.00;102288.16;5074890;28;20059;-37
2023/06/23 08:47:04;;;;;;;12.27;11.18;;;;;;;21.62;100.00;102300.03;5074990;28;20029;-37
2023/06/23 08:49:34;;;;;;;11.40;10.20;;;;;;;21.77;100.00;102297.38;5074838;28;20036;-37
2023/06/23 08:52:01;;;;;;;11.30;10.20;;;;;;;21.89;100.00;102305.38;5075548;28;20020;-37
2023/06/23 08:54:27;;;;;;;11.30;10.27;;;;;;;21.95;100.00;102312.53;5074819;28;20113;-37
2023/06/23 08:56:52;;;;;;;13.13;10.07;;;;;;;22.02;100.00;102318.63;5074855;28;20039;-37
2023/06/23 08:59:18;;;;;;;11.65;10.48;;;;;;;22.17;100.00;102304.91;5074834;28;20049;-37
2023/06/23 09:01:43;;;;;;;10.52;9.52;;;;;;;22.23;100.00;102317.56;5074648;28;20044;-37
2023/06/23 09:04:08;;;;;;;10.57;9.57;;;;;;;22.22;99.50;102315.09;5074754;28;20107;-37
2023/06/23 09:06:34;;;;;;;9.15;8.25;;;;;;;22.32;96.54;102315.94;5075016;28;20028;-37
2023/06/23 09:08:59;;;;;;;8.70;7.90;;;;;;;22.29;97.47;102323.91;5074552;28;20362;-37
2023/06/23 09:11:25;;;;;;;9.70;8.60;;;;;;;22.32;94.12;102323.38;5075322;28;20086;-37
2023/06/23 09:13:56;;;;;;;9.38;8.50;;;;;;;22.53;96.35;102329.72;5074819;28;20029;-37
2023/06/23 09:16:22;;;;;;;8.45;7.47;;;;;;;22.65;95.25;102329.47;5074328;28;20124;-37
2023/06/23 09:18:47;;;;;;;8.35;7.45;;;;;;;22.57;93.13;102325.31;5075127;28;20020;-37
2023/06/23 09:21:13;;;;;;;9.30;8.02;;;;;;;22.60;94.39;102328.34;5074394;28;20028;-37
2023/06/23 09:23:55;;;;;;;7.68;7.03;;;;;;;22.74;95.39;102319.50;5074401;28;20063;-37
2023/06/23 09:26:20;;;;;;;7.13;6.43;;;;;;;23.03;92.30;102342.66;5074359;28;20074;-37
2023/06/23 09:28:46;;;;;;;7.35;6.63;;;;;;;23.07;91.36;102316.16;5074021;28;20024;-37
2023/06/23 09:31:14;;;;;;;8.27;7.45;;;;;;;23.26;87.96;102346.75;5075053;28;20052;-37
2023/06/23 09:33:51;;;;;;;7.47;6.78;;;;;;;23.30;91.80;102335.97;5074185;28;20143;-37
2023/06/23 09:36:17;;;;;;;7.38;6.53;;;;;;;23.15;88.49;102350.66;5074438;28;20028;-37
2023/06/23 09:38:42;;;;;;;8.20;7.10;;;;;;;23.12;86.45;102348.44;5074205;28;20368;-37
2023/06/23 09:41:15;;;;;;;6.97;6.28;;;;;;;23.24;87.68;102332.41;5074637;28;20032;-37
2023/06/23 09:43:45;;;;;;;7.43;6.22;;;;;;;23.45;86.75;102357.19;5073173;28;20016;-37
2023/06/23 09:46:13;;;;;;;6.82;6.22;;;;;;;23.23;85.01;102350.09;5073982;28;20127;-37
2023/06/23 09:48:40;;;;;;;7.63;6.57;;;;;;;23.01;84.91;102357.84;5074532;28;20036;-37
2023/06/23 09:51:06;;;;;;;6.70;6.10;;;;;;;22.93;87.56;102348.19;5074651;28;20051;-37
2023/06/23 09:53:39;;;;;;;7.57;6.07;;;;;;;22.90;87.73;102359.78;5073504;28;20468;-37
2023/06/23 09:56:07;;;;;;;7.28;5.70;;;;;;;23.01;87.29;102366.13;5074214;28;20073;-37
2023/06/23 09:58:36;;;;;;;6.15;5.15;;;;;;;23.11;83.34;102360.59;5073262;28;20075;-37
2023/06/23 10:01:07;;;;;;;5.95;5.13;;;;;;;23.07;85.31;102357.53;5073840;28;20032;-37
2023/06/23 10:03:42;;;;;;;6.25;5.32;;;;;;;23.26;85.02;102345.91;5074047;28;20044;-37
2023/06/23 10:06:08;;;;;;;6.37;5.50;;;;;;;23.39;81.56;102356.38;5073805;28;20025;-37
2023/06/23 10:08:40;;;;;;;6.47;4.78;;;;;;;23.33;81.09;102335.44;5073683;28;20376;-37
2023/06/23 10:11:08;;;;;;;5.78;5.20;;;;;;;23.55;81.76;102355.22;5073884;28;20103;-37
2023/06/23 10:13:34;;;;;;;5.60;5.10;;;;;;;23.70;81.12;102351.59;5073393;28;20040;-37
2023/06/23 10:16:01;;;;;;;4.90;4.35;;;;;;;23.90;81.44;102343.19;5073444;28;20107;-37
2023/06/23 10:18:28;;;;;;;5.70;4.97;;;;;;;23.88;77.50;102350.13;5072958;28;20522;-37
2023/06/23 10:20:54;;;;;;;6.28;3.92;;;;;;;23.95;77.85;102336.00;5073163;28;20037;-37
2023/06/23 10:23:20;;;;;;;5.80;4.65;;;;;;;24.16;75.79;102348.59;5073348;28;20020;-37
2023/06/23 10:25:50;;;;;;;4.65;4.15;;;;;;;24.39;75.87;102350.63;5073371;28;20032;-37
2023/06/23 10:28:17;;;;;;;6.47;4.18;;;;;;;24.59;74.64;102346.06;5073118;28;20025;-37
2023/06/23 10:30:43;;;;;;;5.70;5.13;;;;;;;24.67;76.83;102343.50;5073155;28;20464;-37
2023/06/23 10:33:17;;;;;;;5.55;4.68;;;;;;;24.68;75.35;102349.84;5073023;28;20058;-37
2023/06/23 10:35:44;;;;;;;5.88;5.38;;;;;;;24.40;75.91;102354.22;5073381;28;20059;-37
2023/06/23 10:38:14;;;;;;;6.32;4.82;;;;;;;24.44;77.84;102351.72;5072821;28;20028;-37
2023/06/23 10:40:45;;;;;;;6.00;4.93;;;;;;;24.52;74.97;102351.09;5073212;28;20021;-36
2023/06/23 10:43:12;;;;;;;5.72;5.03;;;;;;;24.45;72.69;102353.34;5072714;28;20028;-36
2023/06/23 10:45:38;;;;;;;5.15;4.57;;;;;;;24.41;75.42;102358.66;5072929;28;20055;-37
2023/06/23 10:48:03;;;;;;;6.72;4.80;;;;;;;24.62;73.77;102362.09;5072689;28;20024;-37
2023/06/23 10:50:30;;;;;;;4.88;4.30;;;;;;;24.86;73.32;102357.44;5072919;28;20051;-37
2023/06/23 10:53:07;;;;;;;4.35;3.95;;;;;;;24.95;70.96;102368.72;5073218;28;20066;-37
2023/06/23 10:55:35;;;;;;;5.25;4.50;;;;;;;25.15;74.65;102359.41;5072705;28;20036;-37
2023/06/23 10:58:16;;;;;;;4.40;4.00;;;;;;;25.00;69.58;102340.97;5073512;28;20369;-37
2023/06/23 11:01:01;;;;;;;4.32;3.92;;;;;;;24.81;69.69;102363.03;5072230;28;20056;-37
2023/06/23 11:03:32;;;;;;;4.22;3.80;;;;;;;24.92;67.90;102367.34;5073240;28;20032;-37
2023/06/23 11:06:00;;;;;;;3.72;3.10;;;;;;;25.11;68.05;102363.88;5072774;28;20497;-37
2023/06/23 11:08:44;;;;;;;4.32;3.90;;;;;;;25.23;71.34;102367.06;5072630;28;20036;-37
2023/06/23 11:11:13;;;;;;;4.38;3.97;;;;;;;25.18;71.12;102364.34;5073191;28;20310;-38
2023/06/23 11:13:43;;;;;;;3.92;3.53;;;;;;;25.42;71.56;102370.69;5072286;28;20445;-37
2023/06/23 11:16:14;;;;;;;4.18;3.72;;;;;;;25.52;69.50;102368.94;5072947;28;20036;-37
2023/06/23 11:18:55;;;;;;;4.53;3.60;;;;;;;25.43;67.41;102380.69;5072843;28;20021;-37